sensor_id;sensor_type;location;lat;lon;timestamp;pressure;altitude;pressure_sealevel;temperature;humidity
73316;BME280;61545;53.726;-0.444;2023-04-03T00:03:31;1029.2;;;2.9;100.0
73316;BME280;61545;53.726;-0.444;2023-04-03T00:08:31;1029.1;;;2.9;100.0
73316;BME280;61545;53.726;-0.444;2023-04-03T00:13:31;1029.2;;;2.8;100.0
73316;BME280;61545;53.726;-0.444;2023-04-03T00:18:31;1029.1;;;2.8;100.0
73316;BME280;61545;53.726;-0.444;2023-04-03T00:23:31;1029.1;;;2.7;100.0
73316;BME280;61545;53.726;-0.444;2023-04-03T00:28:31;1029.2;;;2.7;100.0
73316;BME280;61545;53.726;-0.444;2023-04-03T00:33:31;1029.2;;;2.7;100.0
73316;BME280;61545;53.726;-0.444;2023-04-03T00:38:31;1029.1;;;2.7;100.0
73316;BME280;61545;53.726;-0.444;2023-04-03T00:43:31;1029.1;;;2.6;100.0
73316;BME280;61545;53.726;-0.444;2023-04-03T00:48:32;1029.1;;;2.5;100.0
73316;BME280;61545;53.726;-0.444;2023-04-03T00:53:33;1029.1;;;2.5;100.0
73316;BME280;61545;53.726;-0.444;2023-04-03T00:58:33;1029.0;;;2.4;100.0
73316;BME280;61545;53.726;-0.444;2023-04-03T01:03:31;1029.0;;;2.4;100.0
73316;BME280;61545;53.726;-0.444;2023-04-03T01:08:31;1029.1;;;2.4;100.0
73316;BME280;61545;53.726;-0.444;2023-04-03T01:13:32;1029.1;;;2.3;100.0
73316;BME280;61545;53.726;-0.444;2023-04-03T01:18:31;1029.1;;;2.2;100.0
73316;BME280;61545;53.726;-0.444;2023-04-03T01:23:39;1029.1;;;2.2;100.0
73316;BME280;61545;53.726;-0.444;2023-04-03T01:28:33;1029.1;;;2.2;100.0
73316;BME280;61545;53.726;-0.444;2023-04-03T01:33:31;1029.1;;;2.1;100.0
73316;BME280;61545;53.726;-0.444;2023-04-03T01:38:31;1029.0;;;2.0;100.0
73316;BME280;61545;53.726;-0.444;2023-04-03T01:43:31;1029.0;;;2.0;100.0
73316;BME280;61545;53.726;-0.444;2023-04-03T01:48:31;1029.0;;;2.0;100.0
73316;BME280;61545;53.726;-0.444;2023-04-03T01:53:31;1029.0;;;2.0;100.0
73316;BME280;61545;53.726;-0.444;2023-04-03T01:58:31;1029.0;;;2.0;100.0
73316;BME280;61545;53.726;-0.444;2023-04-03T02:03:31;1029.0;;;1.9;100.0
73316;BME280;61545;53.726;-0.444;2023-04-03T02:08:31;1029.0;;;1.9;100.0
73316;BME280;61545;53.726;-0.444;2023-04-03T02:13:31;1029.0;;;1.9;100.0
73316;BME280;61545;53.726;-0.444;2023-04-03T02:18:31;1029.0;;;1.8;100.0
73316;BME280;61545;53.726;-0.444;2023-04-03T02:23:31;1028.9;;;1.7;100.0
73316;BME280;61545;53.726;-0.444;2023-04-03T02:28:31;1029.0;;;1.8;100.0
73316;BME280;61545;53.726;-0.444;2023-04-03T02:33:31;1029.0;;;1.7;100.0
73316;BME280;61545;53.726;-0.444;2023-04-03T02:38:31;1029.0;;;1.7;100.0
73316;BME280;61545;53.726;-0.444;2023-04-03T02:43:31;1028.9;;;1.7;100.0
73316;BME280;61545;53.726;-0.444;2023-04-03T02:48:31;1029.0;;;1.7;100.0
73316;BME280;61545;53.726;-0.444;2023-04-03T02:53:31;1029.0;;;1.7;100.0
73316;BME280;61545;53.726;-0.444;2023-04-03T02:58:31;1029.0;;;1.6;100.0
73316;BME280;61545;53.726;-0.444;2023-04-03T03:03:31;1028.9;;;1.6;100.0
73316;BME280;61545;53.726;-0.444;2023-04-03T03:08:31;1028.9;;;1.5;100.0
73316;BME280;61545;53.726;-0.444;2023-04-03T03:13:31;1029.0;;;1.5;100.0
73316;BME280;61545;53.726;-0.444;2023-04-03T03:18:31;1028.9;;;1.5;100.0
73316;BME280;61545;53.726;-0.444;2023-04-03T03:23:31;1028.9;;;1.5;100.0
73316;BME280;61545;53.726;-0.444;2023-04-03T03:28:31;1028.8;;;1.5;100.0
73316;BME280;61545;53.726;-0.444;2023-04-03T03:33:31;1028.8;;;1.5;100.0
73316;BME280;61545;53.726;-0.444;2023-04-03T03:38:31;1028.7;;;1.5;100.0
73316;BME280;61545;53.726;-0.444;2023-04-03T03:43:31;1028.7;;;1.5;100.0
73316;BME280;61545;53.726;-0.444;2023-04-03T03:48:31;1028.7;;;1.5;100.0
73316;BME280;61545;53.726;-0.444;2023-04-03T03:53:31;1028.7;;;1.5;100.0
73316;BME280;61545;53.726;-0.444;2023-04-03T03:58:31;1028.7;;;1.4;100.0
73316;BME280;61545;53.726;-0.444;2023-04-03T04:03:31;1028.7;;;1.4;100.0
73316;BME280;61545;53.726;-0.444;2023-04-03T04:08:31;1028.7;;;1.2;100.0
73316;BME280;61545;53.726;-0.444;2023-04-03T04:13:31;1028.7;;;1.3;100.0
73316;BME280;61545;53.726;-0.444;2023-04-03T04:18:31;1028.7;;;1.4;100.0
73316;BME280;61545;53.726;-0.444;2023-04-03T04:23:31;1028.7;;;1.4;100.0
73316;BME280;61545;53.726;-0.444;2023-04-03T04:28:31;1028.7;;;1.4;100.0
73316;BME280;61545;53.726;-0.444;2023-04-03T04:33:31;1028.8;;;1.3;100.0
73316;BME280;61545;53.726;-0.444;2023-04-03T04:38:31;1028.8;;;1.3;100.0
73316;BME280;61545;53.726;-0.444;2023-04-03T04:43:31;1028.8;;;1.2;100.0
73316;BME280;61545;53.726;-0.444;2023-04-03T04:48:31;1028.8;;;1.2;100.0
73316;BME280;61545;53.726;-0.444;2023-04-03T04:53:31;1028.8;;;1.2;100.0
73316;BME280;61545;53.726;-0.444;2023-04-03T04:58:31;1028.7;;;1.2;100.0
73316;BME280;61545;53.726;-0.444;2023-04-03T05:03:31;1028.7;;;1.2;100.0
73316;BME280;61545;53.726;-0.444;2023-04-03T05:08:31;1028.7;;;1.2;100.0
73316;BME280;61545;53.726;-0.444;2023-04-03T05:13:31;1028.7;;;1.2;100.0
73316;BME280;61545;53.726;-0.444;2023-04-03T05:18:31;1028.8;;;1.2;100.0
73316;BME280;61545;53.726;-0.444;2023-04-03T05:23:31;1028.7;;;1.2;100.0
73316;BME280;61545;53.726;-0.444;2023-04-03T05:28:31;1028.7;;;1.2;100.0
73316;BME280;61545;53.726;-0.444;2023-04-03T05:33:31;1028.7;;;1.2;100.0
73316;BME280;61545;53.726;-0.444;2023-04-03T05:38:31;1028.7;;;1.2;100.0
73316;BME280;61545;53.726;-0.444;2023-04-03T05:43:31;1028.8;;;1.2;100.0
73316;BME280;61545;53.726;-0.444;2023-04-03T05:48:31;1028.8;;;1.2;100.0
73316;BME280;61545;53.726;-0.444;2023-04-03T05:53:33;1028.9;;;1.2;100.0
73316;BME280;61545;53.726;-0.444;2023-04-03T05:58:31;1028.9;;;1.2;100.0
73316;BME280;61545;53.726;-0.444;2023-04-03T06:03:31;1028.9;;;1.4;100.0
73316;BME280;61545;53.726;-0.444;2023-04-03T06:08:31;1028.9;;;1.4;100.0
73316;BME280;61545;53.726;-0.444;2023-04-03T06:13:31;1028.9;;;2.2;100.0
73316;BME280;61545;53.726;-0.444;2023-04-03T06:18:31;1028.9;;;2.7;100.0
73316;BME280;61545;53.726;-0.444;2023-04-03T06:23:31;1028.8;;;3.1;100.0
73316;BME280;61545;53.726;-0.444;2023-04-03T06:28:31;1028.9;;;4.3;100.0
73316;BME280;61545;53.726;-0.444;2023-04-03T06:33:31;1028.8;;;5.3;100.0
73316;BME280;61545;53.726;-0.444;2023-04-03T06:38:31;1028.8;;;6.0;100.0
73316;BME280;61545;53.726;-0.444;2023-04-03T06:43:31;1028.8;;;5.7;100.0
73316;BME280;61545;53.726;-0.444;2023-04-03T06:48:31;1028.9;;;6.8;100.0
73316;BME280;61545;53.726;-0.444;2023-04-03T06:53:31;1028.8;;;7.5;100.0
73316;BME280;61545;53.726;-0.444;2023-04-03T06:58:31;1028.9;;;7.6;100.0
73316;BME280;61545;53.726;-0.444;2023-04-03T07:03:31;1028.8;;;7.7;100.0
73316;BME280;61545;53.726;-0.444;2023-04-03T07:08:31;1028.8;;;5.9;100.0
73316;BME280;61545;53.726;-0.444;2023-04-03T07:13:32;1028.9;;;7.0;100.0
73316;BME280;61545;53.726;-0.444;2023-04-03T07:18:31;1028.8;;;8.2;100.0
73316;BME280;61545;53.726;-0.444;2023-04-03T07:23:31;1028.8;;;8.8;100.0
73316;BME280;61545;53.726;-0.444;2023-04-03T07:28:31;1028.8;;;8.4;100.0
73316;BME280;61545;53.726;-0.444;2023-04-03T07:33:31;1028.8;;;8.7;100.0
73316;BME280;61545;53.726;-0.444;2023-04-03T07:38:31;1028.9;;;9.2;100.0
73316;BME280;61545;53.726;-0.444;2023-04-03T07:43:31;1028.9;;;10.0;100.0
73316;BME280;61545;53.726;-0.444;2023-04-03T07:48:31;1028.9;;;9.2;100.0
73316;BME280;61545;53.726;-0.444;2023-04-03T07:53:31;1028.9;;;9.9;100.0
73316;BME280;61545;53.726;-0.444;2023-04-03T07:58:31;1028.9;;;9.5;100.0
73316;BME280;61545;53.726;-0.444;2023-04-03T08:03:31;1028.9;;;9.5;100.0
73316;BME280;61545;53.726;-0.444;2023-04-03T08:08:31;1028.9;;;9.4;100.0
73316;BME280;61545;53.726;-0.444;2023-04-03T08:13:31;1028.8;;;9.2;100.0
73316;BME280;61545;53.726;-0.444;2023-04-03T08:18:31;1028.8;;;9.5;100.0
73316;BME280;61545;53.726;-0.444;2023-04-03T08:23:31;1028.8;;;9.4;100.0
73316;BME280;61545;53.726;-0.444;2023-04-03T08:28:31;1028.7;;;10.5;100.0
73316;BME280;61545;53.726;-0.444;2023-04-03T08:33:31;1028.7;;;10.0;100.0
73316;BME280;61545;53.726;-0.444;2023-04-03T08:38:31;1028.7;;;8.2;100.0
73316;BME280;61545;53.726;-0.444;2023-04-03T08:43:36;1028.8;;;7.9;100.0
73316;BME280;61545;53.726;-0.444;2023-04-03T08:48:33;1028.9;;;7.9;100.0
73316;BME280;61545;53.726;-0.444;2023-04-03T08:53:33;1028.9;;;8.9;100.0
73316;BME280;61545;53.726;-0.444;2023-04-03T08:58:33;1028.8;;;10.0;100.0
73316;BME280;61545;53.726;-0.444;2023-04-03T09:03:32;1028.8;;;9.0;100.0
73316;BME280;61545;53.726;-0.444;2023-04-03T09:08:33;1028.8;;;9.0;100.0
73316;BME280;61545;53.726;-0.444;2023-04-03T09:13:33;1028.7;;;9.2;100.0
73316;BME280;61545;53.726;-0.444;2023-04-03T09:18:32;1028.7;;;8.8;100.0
73316;BME280;61545;53.726;-0.444;2023-04-03T09:23:33;1028.6;;;8.9;100.0
73316;BME280;61545;53.726;-0.444;2023-04-03T09:28:33;1028.5;;;10.7;100.0
73316;BME280;61545;53.726;-0.444;2023-04-03T09:33:31;1028.5;;;11.7;100.0
73316;BME280;61545;53.726;-0.444;2023-04-03T09:38:31;1028.4;;;11.2;100.0
73316;BME280;61545;53.726;-0.444;2023-04-03T09:43:32;1028.4;;;10.1;100.0
73316;BME280;61545;53.726;-0.444;2023-04-03T09:48:31;1028.4;;;9.9;100.0
73316;BME280;61545;53.726;-0.444;2023-04-03T09:53:34;1028.4;;;9.5;100.0
73316;BME280;61545;53.726;-0.444;2023-04-03T09:58:33;1028.4;;;10.1;100.0
73316;BME280;61545;53.726;-0.444;2023-04-03T10:03:33;1028.4;;;10.0;100.0
73316;BME280;61545;53.726;-0.444;2023-04-03T10:08:32;1028.4;;;10.7;100.0
73316;BME280;61545;53.726;-0.444;2023-04-03T10:13:31;1028.3;;;10.4;100.0
73316;BME280;61545;53.726;-0.444;2023-04-03T10:18:33;1028.4;;;10.4;100.0
73316;BME280;61545;53.726;-0.444;2023-04-03T10:23:33;1028.3;;;10.2;100.0
73316;BME280;61545;53.726;-0.444;2023-04-03T10:28:35;1028.2;;;9.0;100.0
73316;BME280;61545;53.726;-0.444;2023-04-03T10:33:38;1028.2;;;9.9;100.0
73316;BME280;61545;53.726;-0.444;2023-04-03T10:38:35;1028.1;;;11.0;100.0
73316;BME280;61545;53.726;-0.444;2023-04-03T10:43:33;1028.1;;;10.5;100.0
73316;BME280;61545;53.726;-0.444;2023-04-03T10:48:40;1028.1;;;10.8;100.0
73316;BME280;61545;53.726;-0.444;2023-04-03T10:53:35;1028.1;;;10.2;100.0
73316;BME280;61545;53.726;-0.444;2023-04-03T10:58:33;1028.0;;;9.7;100.0
73316;BME280;61545;53.726;-0.444;2023-04-03T11:03:33;1028.0;;;10.5;100.0
73316;BME280;61545;53.726;-0.444;2023-04-03T11:08:33;1028.1;;;10.5;100.0
73316;BME280;61545;53.726;-0.444;2023-04-03T11:13:33;1027.9;;;9.4;100.0
73316;BME280;61545;53.726;-0.444;2023-04-03T11:18:34;1027.9;;;9.8;100.0
73316;BME280;61545;53.726;-0.444;2023-04-03T11:23:33;1027.9;;;9.8;100.0
73316;BME280;61545;53.726;-0.444;2023-04-03T11:28:32;1027.9;;;10.2;100.0
73316;BME280;61545;53.726;-0.444;2023-04-03T11:33:36;1027.8;;;10.3;100.0
73316;BME280;61545;53.726;-0.444;2023-04-03T11:38:33;1027.8;;;9.7;100.0
73316;BME280;61545;53.726;-0.444;2023-04-03T11:43:32;1027.9;;;9.7;100.0
73316;BME280;61545;53.726;-0.444;2023-04-03T11:48:49;1027.8;;;9.7;100.0
73316;BME280;61545;53.726;-0.444;2023-04-03T11:53:33;1027.8;;;9.5;100.0
73316;BME280;61545;53.726;-0.444;2023-04-03T11:58:32;1027.8;;;10.0;100.0
73316;BME280;61545;53.726;-0.444;2023-04-03T12:08:43;1027.7;;;9.5;100.0
73316;BME280;61545;53.726;-0.444;2023-04-03T12:13:31;1027.7;;;9.4;100.0
73316;BME280;61545;53.726;-0.444;2023-04-03T12:18:43;1027.7;;;9.5;100.0
73316;BME280;61545;53.726;-0.444;2023-04-03T12:23:32;1027.5;;;9.4;100.0
73316;BME280;61545;53.726;-0.444;2023-04-03T12:28:39;1027.5;;;10.2;100.0
73316;BME280;61545;53.726;-0.444;2023-04-03T12:33:36;1027.4;;;9.5;100.0
73316;BME280;61545;53.726;-0.444;2023-04-03T12:39:10;1027.4;;;9.7;100.0
73316;BME280;61545;53.726;-0.444;2023-04-03T12:43:42;1027.3;;;10.0;100.0
73316;BME280;61545;53.726;-0.444;2023-04-03T12:48:34;1027.3;;;10.2;100.0
73316;BME280;61545;53.726;-0.444;2023-04-03T12:53:33;1027.4;;;9.8;100.0
73316;BME280;61545;53.726;-0.444;2023-04-03T12:58:32;1027.3;;;9.4;100.0
73316;BME280;61545;53.726;-0.444;2023-04-03T13:03:39;1027.2;;;9.5;100.0
73316;BME280;61545;53.726;-0.444;2023-04-03T13:08:32;1027.3;;;10.0;100.0
73316;BME280;61545;53.726;-0.444;2023-04-03T13:13:32;1027.2;;;9.4;100.0
73316;BME280;61545;53.726;-0.444;2023-04-03T13:18:33;1027.2;;;9.3;100.0
73316;BME280;61545;53.726;-0.444;2023-04-03T13:23:32;1027.2;;;9.5;100.0
73316;BME280;61545;53.726;-0.444;2023-04-03T13:28:32;1027.1;;;9.5;100.0
73316;BME280;61545;53.726;-0.444;2023-04-03T13:33:33;1027.1;;;9.4;100.0
73316;BME280;61545;53.726;-0.444;2023-04-03T13:38:32;1027.1;;;9.0;100.0
73316;BME280;61545;53.726;-0.444;2023-04-03T13:43:33;1027.1;;;9.4;100.0
73316;BME280;61545;53.726;-0.444;2023-04-03T13:48:38;1027.0;;;9.9;100.0
73316;BME280;61545;53.726;-0.444;2023-04-03T13:53:33;1027.0;;;9.2;100.0
73316;BME280;61545;53.726;-0.444;2023-04-03T13:58:32;1027.0;;;9.2;100.0
73316;BME280;61545;53.726;-0.444;2023-04-03T14:03:37;1027.0;;;9.2;100.0
73316;BME280;61545;53.726;-0.444;2023-04-03T14:08:32;1027.0;;;9.5;100.0
73316;BME280;61545;53.726;-0.444;2023-04-03T14:13:32;1026.9;;;9.2;100.0
73316;BME280;61545;53.726;-0.444;2023-04-03T14:18:32;1026.9;;;9.7;100.0
73316;BME280;61545;53.726;-0.444;2023-04-03T14:23:32;1026.8;;;9.5;100.0
73316;BME280;61545;53.726;-0.444;2023-04-03T14:28:32;1026.7;;;9.8;100.0
73316;BME280;61545;53.726;-0.444;2023-04-03T14:33:32;1026.7;;;9.3;100.0
73316;BME280;61545;53.726;-0.444;2023-04-03T14:38:32;1026.6;;;9.4;100.0
73316;BME280;61545;53.726;-0.444;2023-04-03T14:43:32;1026.6;;;9.0;100.0
73316;BME280;61545;53.726;-0.444;2023-04-03T14:48:32;1026.6;;;9.2;100.0
73316;BME280;61545;53.726;-0.444;2023-04-03T14:53:32;1026.6;;;9.4;100.0
73316;BME280;61545;53.726;-0.444;2023-04-03T14:58:32;1026.5;;;9.2;100.0
73316;BME280;61545;53.726;-0.444;2023-04-03T15:03:32;1026.5;;;9.0;100.0
73316;BME280;61545;53.726;-0.444;2023-04-03T15:08:32;1026.4;;;9.3;100.0
73316;BME280;61545;53.726;-0.444;2023-04-03T15:13:32;1026.3;;;8.8;100.0
73316;BME280;61545;53.726;-0.444;2023-04-03T15:18:35;1026.4;;;8.7;100.0
73316;BME280;61545;53.726;-0.444;2023-04-03T15:23:32;1026.3;;;8.7;100.0
73316;BME280;61545;53.726;-0.444;2023-04-03T15:28:33;1026.3;;;9.0;100.0
73316;BME280;61545;53.726;-0.444;2023-04-03T15:33:33;1026.2;;;8.7;100.0
73316;BME280;61545;53.726;-0.444;2023-04-03T15:38:32;1026.1;;;8.9;100.0
73316;BME280;61545;53.726;-0.444;2023-04-03T15:43:32;1026.2;;;8.6;100.0
73316;BME280;61545;53.726;-0.444;2023-04-03T15:48:32;1026.2;;;8.5;100.0
73316;BME280;61545;53.726;-0.444;2023-04-03T15:53:32;1026.1;;;8.6;100.0
73316;BME280;61545;53.726;-0.444;2023-04-03T15:58:32;1026.1;;;8.7;100.0
73316;BME280;61545;53.726;-0.444;2023-04-03T16:03:32;1026.1;;;8.7;100.0
73316;BME280;61545;53.726;-0.444;2023-04-03T16:08:32;1026.0;;;8.7;100.0
73316;BME280;61545;53.726;-0.444;2023-04-03T16:13:32;1026.0;;;8.8;100.0
73316;BME280;61545;53.726;-0.444;2023-04-03T16:18:32;1026.0;;;8.4;100.0
73316;BME280;61545;53.726;-0.444;2023-04-03T16:23:32;1026.1;;;8.4;100.0
73316;BME280;61545;53.726;-0.444;2023-04-03T16:28:32;1026.0;;;8.2;100.0
73316;BME280;61545;53.726;-0.444;2023-04-03T16:33:32;1026.0;;;8.5;100.0
73316;BME280;61545;53.726;-0.444;2023-04-03T16:38:32;1026.0;;;8.2;100.0
73316;BME280;61545;53.726;-0.444;2023-04-03T16:43:32;1026.0;;;8.4;100.0
73316;BME280;61545;53.726;-0.444;2023-04-03T16:48:32;1026.0;;;8.2;100.0
73316;BME280;61545;53.726;-0.444;2023-04-03T16:53:32;1026.0;;;8.0;100.0
73316;BME280;61545;53.726;-0.444;2023-04-03T16:58:32;1025.9;;;7.8;100.0
73316;BME280;61545;53.726;-0.444;2023-04-03T17:03:32;1025.9;;;7.7;100.0
73316;BME280;61545;53.726;-0.444;2023-04-03T17:08:32;1026.0;;;7.7;100.0
73316;BME280;61545;53.726;-0.444;2023-04-03T17:13:32;1025.9;;;7.6;100.0
73316;BME280;61545;53.726;-0.444;2023-04-03T17:18:32;1025.9;;;7.5;100.0
73316;BME280;61545;53.726;-0.444;2023-04-03T17:23:32;1025.9;;;7.3;100.0
73316;BME280;61545;53.726;-0.444;2023-04-03T17:28:32;1025.9;;;7.3;100.0
73316;BME280;61545;53.726;-0.444;2023-04-03T17:33:32;1025.9;;;7.1;100.0
73316;BME280;61545;53.726;-0.444;2023-04-03T17:38:32;1026.0;;;7.2;100.0
73316;BME280;61545;53.726;-0.444;2023-04-03T17:43:32;1026.0;;;6.9;100.0
73316;BME280;61545;53.726;-0.444;2023-04-03T17:48:32;1026.0;;;6.9;100.0
73316;BME280;61545;53.726;-0.444;2023-04-03T17:53:32;1026.0;;;6.8;100.0
73316;BME280;61545;53.726;-0.444;2023-04-03T17:58:32;1026.0;;;6.8;100.0
73316;BME280;61545;53.726;-0.444;2023-04-03T18:03:32;1026.0;;;6.8;100.0
73316;BME280;61545;53.726;-0.444;2023-04-03T18:08:32;1026.1;;;6.7;100.0
73316;BME280;61545;53.726;-0.444;2023-04-03T18:13:32;1026.1;;;6.6;100.0
73316;BME280;61545;53.726;-0.444;2023-04-03T18:18:32;1026.0;;;6.5;100.0
73316;BME280;61545;53.726;-0.444;2023-04-03T18:23:32;1026.0;;;6.5;100.0
73316;BME280;61545;53.726;-0.444;2023-04-03T18:28:32;1026.1;;;6.5;100.0
73316;BME280;61545;53.726;-0.444;2023-04-03T18:33:32;1026.2;;;6.5;100.0
73316;BME280;61545;53.726;-0.444;2023-04-03T18:38:32;1026.2;;;6.3;100.0
73316;BME280;61545;53.726;-0.444;2023-04-03T18:43:32;1026.2;;;6.4;100.0
73316;BME280;61545;53.726;-0.444;2023-04-03T18:48:32;1026.2;;;6.3;100.0
73316;BME280;61545;53.726;-0.444;2023-04-03T18:53:32;1026.3;;;6.3;100.0
73316;BME280;61545;53.726;-0.444;2023-04-03T18:58:32;1026.3;;;6.2;100.0
73316;BME280;61545;53.726;-0.444;2023-04-03T19:03:32;1026.4;;;6.2;100.0
73316;BME280;61545;53.726;-0.444;2023-04-03T19:08:32;1026.4;;;6.0;100.0
73316;BME280;61545;53.726;-0.444;2023-04-03T19:13:32;1026.5;;;6.1;100.0
73316;BME280;61545;53.726;-0.444;2023-04-03T19:18:32;1026.5;;;6.0;100.0
73316;BME280;61545;53.726;-0.444;2023-04-03T19:23:32;1026.4;;;6.0;100.0
73316;BME280;61545;53.726;-0.444;2023-04-03T19:28:32;1026.4;;;5.9;100.0
73316;BME280;61545;53.726;-0.444;2023-04-03T19:33:32;1026.4;;;5.8;100.0
73316;BME280;61545;53.726;-0.444;2023-04-03T19:38:32;1026.4;;;5.8;100.0
73316;BME280;61545;53.726;-0.444;2023-04-03T19:43:32;1026.5;;;5.9;100.0
73316;BME280;61545;53.726;-0.444;2023-04-03T19:48:32;1026.5;;;5.8;100.0
73316;BME280;61545;53.726;-0.444;2023-04-03T19:53:32;1026.5;;;5.8;100.0
73316;BME280;61545;53.726;-0.444;2023-04-03T19:58:32;1026.5;;;5.7;100.0
73316;BME280;61545;53.726;-0.444;2023-04-03T20:03:32;1026.5;;;5.7;100.0
73316;BME280;61545;53.726;-0.444;2023-04-03T20:08:32;1026.5;;;5.5;100.0
73316;BME280;61545;53.726;-0.444;2023-04-03T20:13:32;1026.5;;;5.5;100.0
73316;BME280;61545;53.726;-0.444;2023-04-03T20:18:32;1026.5;;;5.6;100.0
73316;BME280;61545;53.726;-0.444;2023-04-03T20:23:32;1026.5;;;5.5;100.0
73316;BME280;61545;53.726;-0.444;2023-04-03T20:28:32;1026.5;;;5.4;100.0
73316;BME280;61545;53.726;-0.444;2023-04-03T20:33:32;1026.5;;;5.3;100.0
73316;BME280;61545;53.726;-0.444;2023-04-03T20:38:32;1026.5;;;5.2;100.0
73316;BME280;61545;53.726;-0.444;2023-04-03T20:43:32;1026.5;;;5.2;100.0
73316;BME280;61545;53.726;-0.444;2023-04-03T20:48:32;1026.5;;;5.0;100.0
73316;BME280;61545;53.726;-0.444;2023-04-03T20:53:32;1026.4;;;5.0;100.0
73316;BME280;61545;53.726;-0.444;2023-04-03T20:58:32;1026.4;;;4.9;100.0
73316;BME280;61545;53.726;-0.444;2023-04-03T21:03:32;1026.5;;;4.8;100.0
73316;BME280;61545;53.726;-0.444;2023-04-03T21:23:32;1026.6;;;4.7;100.0
73316;BME280;61545;53.726;-0.444;2023-04-03T21:28:32;1026.6;;;4.7;100.0
73316;BME280;61545;53.726;-0.444;2023-04-03T21:33:32;1026.6;;;4.6;100.0
73316;BME280;61545;53.726;-0.444;2023-04-03T21:38:32;1026.6;;;4.5;100.0
73316;BME280;61545;53.726;-0.444;2023-04-03T21:43:32;1026.7;;;4.5;100.0
73316;BME280;61545;53.726;-0.444;2023-04-03T21:48:32;1026.6;;;4.5;100.0
73316;BME280;61545;53.726;-0.444;2023-04-03T21:53:32;1026.6;;;4.4;100.0
73316;BME280;61545;53.726;-0.444;2023-04-03T21:58:32;1026.6;;;4.4;100.0
73316;BME280;61545;53.726;-0.444;2023-04-03T22:03:32;1026.6;;;4.4;100.0
73316;BME280;61545;53.726;-0.444;2023-04-03T22:08:32;1026.7;;;4.3;100.0
73316;BME280;61545;53.726;-0.444;2023-04-03T22:13:32;1026.6;;;4.3;100.0
73316;BME280;61545;53.726;-0.444;2023-04-03T22:18:32;1026.6;;;4.3;100.0
73316;BME280;61545;53.726;-0.444;2023-04-03T22:23:32;1026.6;;;4.3;100.0
73316;BME280;61545;53.726;-0.444;2023-04-03T22:28:33;1026.5;;;4.0;100.0
73316;BME280;61545;53.726;-0.444;2023-04-03T22:33:32;1026.6;;;4.2;100.0
73316;BME280;61545;53.726;-0.444;2023-04-03T22:38:32;1026.5;;;4.1;100.0
73316;BME280;61545;53.726;-0.444;2023-04-03T22:43:33;1026.6;;;4.1;100.0
73316;BME280;61545;53.726;-0.444;2023-04-03T22:48:32;1026.5;;;4.1;100.0
73316;BME280;61545;53.726;-0.444;2023-04-03T22:53:32;1026.6;;;4.0;100.0
73316;BME280;61545;53.726;-0.444;2023-04-03T22:58:32;1026.6;;;4.0;100.0
73316;BME280;61545;53.726;-0.444;2023-04-03T23:03:32;1026.6;;;4.0;100.0
73316;BME280;61545;53.726;-0.444;2023-04-03T23:08:32;1026.6;;;3.8;100.0
73316;BME280;61545;53.726;-0.444;2023-04-03T23:13:32;1026.5;;;3.8;100.0
73316;BME280;61545;53.726;-0.444;2023-04-03T23:18:32;1026.5;;;3.6;100.0
73316;BME280;61545;53.726;-0.444;2023-04-03T23:23:32;1026.4;;;3.7;100.0
73316;BME280;61545;53.726;-0.444;2023-04-03T23:28:32;1026.5;;;3.7;100.0
73316;BME280;61545;53.726;-0.444;2023-04-03T23:33:32;1026.4;;;3.5;100.0
73316;BME280;61545;53.726;-0.444;2023-04-03T23:38:32;1026.4;;;3.6;100.0
73316;BME280;61545;53.726;-0.444;2023-04-03T23:43:32;1026.4;;;3.5;100.0
73316;BME280;61545;53.726;-0.444;2023-04-03T23:48:32;1026.3;;;3.6;100.0
73316;BME280;61545;53.726;-0.444;2023-04-03T23:53:32;1026.4;;;3.4;100.0
73316;BME280;61545;53.726;-0.444;2023-04-03T23:58:32;1026.3;;;3.3;100.0
